Time;durP1;ratioP1;P1;durP2;ratioP2;P2;SDS_P1;SDS_P2;PMS_P1;PMS_P2;Temp;Humidity;BMP_temperature;BMP_pressure;BME280_temperature;BME280_humidity;BME280_pressure;Samples;Min_cycle;Max_cycle;Signal;HPM_P1;HPM_P2
2023/09/22 00:00:10;;;;;;;12.43;5.32;;;20.30;74.90;;;;;;5006618;28;20076;-72
2023/09/22 00:02:39;;;;;;;10.63;4.30;;;20.30;74.80;;;;;;5019710;28;20083;-72
2023/09/22 00:05:07;;;;;;;10.00;4.53;;;20.30;75.00;;;;;;5007489;28;20131;-72
2023/09/22 00:07:34;;;;;;;10.48;4.53;;;20.30;75.00;;;;;;5018322;28;20292;-71
2023/09/22 00:10:02;;;;;;;8.73;4.05;;;20.30;75.20;;;;;;5007585;28;20064;-78
2023/09/22 00:12:29;;;;;;;8.48;4.13;;;20.30;74.90;;;;;;5024679;28;20053;-79
2023/09/22 00:15:00;;;;;;;8.15;4.55;;;20.30;75.20;;;;;;5004939;28;20053;-79
2023/09/22 00:17:27;;;;;;;11.32;5.60;;;20.30;75.20;;;;;;5003255;28;20058;-78
2023/09/22 00:19:55;;;;;;;9.75;4.85;;;20.30;75.00;;;;;;5022217;28;20050;-77
2023/09/22 00:22:22;;;;;;;10.75;5.03;;;20.30;75.10;;;;;;5005543;28;20049;-77
2023/09/22 00:24:50;;;;;;;12.50;5.10;;;20.30;75.00;;;;;;5022500;28;20160;-79
2023/09/22 00:27:19;;;;;;;6.47;4.43;;;20.30;75.50;;;;;;5002331;28;20045;-78
2023/09/22 00:29:46;;;;;;;9.73;4.95;;;20.30;75.70;;;;;;5018181;28;20150;-78
2023/09/22 00:32:13;;;;;;;8.98;5.00;;;20.30;75.50;;;;;;5022267;28;20061;-78
2023/09/22 00:34:40;;;;;;;8.93;4.65;;;20.30;75.80;;;;;;5003330;28;20053;-78
2023/09/22 00:37:07;;;;;;;7.32;4.68;;;20.30;75.40;;;;;;5021903;28;20134;-78
2023/09/22 00:39:34;;;;;;;10.13;5.20;;;20.30;75.50;;;;;;5020781;28;20049;-78
2023/09/22 00:42:05;;;;;;;12.70;5.13;;;20.30;75.50;;;;;;5008143;28;20124;-78
2023/09/22 00:44:32;;;;;;;10.32;4.60;;;20.40;75.40;;;;;;5005449;28;20059;-78
2023/09/22 00:46:59;;;;;;;10.02;4.93;;;20.30;75.20;;;;;;5018004;28;20653;-78
2023/09/22 00:49:27;;;;;;;9.02;4.57;;;20.40;75.20;;;;;;4998967;28;20156;-78
2023/09/22 00:51:54;;;;;;;8.45;5.18;;;20.40;75.40;;;;;;5023061;28;20382;-78
2023/09/22 00:54:21;;;;;;;9.02;5.07;;;20.40;75.30;;;;;;5025981;28;20132;-72
2023/09/22 00:56:49;;;;;;;10.90;5.57;;;20.40;75.60;;;;;;5025735;28;20239;-72
2023/09/22 00:59:16;;;;;;;8.80;5.82;;;20.40;75.50;;;;;;5026535;28;20627;-78
2023/09/22 01:01:43;;;;;;;21.45;5.75;;;20.40;75.20;;;;;;5019744;28;20061;-77
2023/09/22 01:04:14;;;;;;;8.25;6.03;;;20.40;75.30;;;;;;5027417;28;20055;-78
2023/09/22 01:06:43;;;;;;;10.50;5.53;;;20.50;75.50;;;;;;5021849;28;20052;-78
2023/09/22 01:09:10;;;;;;;10.85;5.40;;;20.50;75.10;;;;;;5024964;28;20119;-78
2023/09/22 01:11:39;;;;;;;18.65;5.22;;;20.50;75.00;;;;;;5006740;28;20696;-72
2023/09/22 01:14:06;;;;;;;12.65;5.60;;;20.50;75.30;;;;;;5003935;28;20042;-72
2023/09/22 01:16:33;;;;;;;22.98;6.90;;;20.50;75.50;;;;;;5021346;28;20057;-72
2023/09/22 01:19:00;;;;;;;14.88;6.07;;;20.50;78.30;;;;;;5023574;28;20050;-72
2023/09/22 01:21:31;;;;;;;13.18;6.60;;;20.40;81.70;;;;;;5026030;28;20090;-72
2023/09/22 01:23:59;;;;;;;11.75;6.53;;;20.20;83.00;;;;;;5025964;28;20127;-72
2023/09/22 01:26:27;;;;;;;16.45;6.13;;;20.00;83.00;;;;;;5024540;28;20045;-72
2023/09/22 01:28:54;;;;;;;10.23;5.22;;;19.80;83.90;;;;;;5024037;28;20198;-71
2023/09/22 01:31:21;;;;;;;9.60;5.55;;;19.70;82.60;;;;;;5024829;28;20057;-72
2023/09/22 01:33:47;;;;;;;15.77;5.28;;;19.60;84.80;;;;;;5025621;28;20567;-72
2023/09/22 01:36:15;;;;;;;12.48;4.60;;;19.50;83.90;;;;;;5017855;28;20049;-72
2023/09/22 01:38:42;;;;;;;8.50;4.15;;;19.40;85.20;;;;;;5023726;28;20053;-72
2023/09/22 01:41:11;;;;;;;7.97;4.20;;;19.30;84.70;;;;;;5025648;28;20183;-71
2023/09/22 01:43:39;;;;;;;4.97;3.28;;;19.30;85.80;;;;;;5023784;28;20151;-72
2023/09/22 01:46:06;;;;;;;8.70;4.15;;;19.20;85.40;;;;;;5007423;28;20173;-72
2023/09/22 01:48:34;;;;;;;9.15;3.30;;;19.10;87.10;;;;;;5007296;28;20051;-72
2023/09/22 01:51:04;;;;;;;4.30;2.50;;;19.00;86.70;;;;;;5006604;28;20046;-72
2023/09/22 01:53:35;;;;;;;6.50;3.10;;;18.90;87.10;;;;;;5024745;28;20321;-72
2023/09/22 01:56:02;;;;;;;4.93;2.80;;;18.70;88.40;;;;;;5007867;28;20045;-73
2023/09/22 01:58:29;;;;;;;6.70;2.97;;;18.60;91.30;;;;;;5007713;28;20320;-72
2023/09/22 02:00:57;;;;;;;8.15;2.78;;;18.40;91.80;;;;;;5002553;28;20151;-72
2023/09/22 02:03:24;;;;;;;10.45;3.45;;;18.30;92.70;;;;;;5005517;28;20042;-73
2023/09/22 02:05:51;;;;;;;4.90;2.42;;;18.20;94.20;;;;;;5025431;28;20103;-73
2023/09/22 02:08:18;;;;;;;9.45;2.70;;;18.10;95.20;;;;;;5023806;28;20103;-73
2023/09/22 02:10:44;;;;;;;4.47;2.72;;;17.90;94.70;;;;;;5016758;28;20057;-73
2023/09/22 02:13:12;;;;;;;5.97;2.85;;;17.90;95.20;;;;;;5024114;28;20551;-72
2023/09/22 02:15:39;;;;;;;5.68;2.70;;;17.80;96.10;;;;;;5020624;28;20057;-72
2023/09/22 02:18:06;;;;;;;5.43;2.50;;;17.70;96.60;;;;;;5018459;28;20474;-73
2023/09/22 02:20:33;;;;;;;10.57;3.00;;;17.60;97.10;;;;;;5020830;28;20053;-73
2023/09/22 02:23:00;;;;;;;6.50;2.85;;;17.60;98.00;;;;;;5006828;28;20167;-73
2023/09/22 02:25:27;;;;;;;3.83;2.80;;;17.50;98.70;;;;;;5010266;28;20045;-73
2023/09/22 02:27:55;;;;;;;5.63;3.17;;;17.40;98.60;;;;;;5024189;28;20061;-73
2023/09/22 02:30:23;;;;;;;5.13;3.03;;;17.40;99.00;;;;;;5024120;28;20068;-73
2023/09/22 02:32:50;;;;;;;7.35;3.65;;;17.30;99.20;;;;;;5024445;28;20053;-73
2023/09/22 02:35:18;;;;;;;7.00;3.70;;;17.20;99.30;;;;;;5025569;28;20056;-73
2023/09/22 02:37:45;;;;;;;4.95;3.33;;;17.20;100.00;;;;;;5002840;28;20045;-73
2023/09/22 02:40:16;;;;;;;8.80;3.17;;;17.20;100.00;;;;;;5022404;28;20048;-73
2023/09/22 02:42:43;;;;;;;11.23;3.90;;;17.20;100.00;;;;;;5002045;28;20052;-73
2023/09/22 02:45:11;;;;;;;5.30;3.53;;;17.10;100.00;;;;;;5023786;28;20075;-73
2023/09/22 02:47:40;;;;;;;7.57;4.50;;;17.20;100.00;;;;;;5022138;28;20057;-73
2023/09/22 02:52:39;;;;;;;7.85;4.25;;;17.20;100.00;;;;;;4981314;28;20054;-73
2023/09/22 02:55:11;;;;;;;5.75;3.80;;;17.20;100.00;;;;;;4983173;28;20068;-73
2023/09/22 02:57:39;;;;;;;8.70;4.18;;;17.10;100.00;;;;;;4972400;28;20046;-73
2023/09/22 03:00:18;;;;;;;8.73;4.30;;;17.10;100.00;;;;;;4985038;28;20125;-72
2023/09/22 03:02:46;;;;;;;8.75;4.07;;;17.10;100.00;;;;;;4985264;28;20053;-73
2023/09/22 03:05:17;;;;;;;8.02;3.92;;;17.10;100.00;;;;;;4985899;28;20050;-72
2023/09/22 03:07:48;;;;;;;6.85;3.78;;;17.10;100.00;;;;;;4964406;28;20070;-72
2023/09/22 03:10:21;;;;;;;7.93;3.55;;;17.00;100.00;;;;;;4980424;28;20051;-71
2023/09/22 03:12:53;;;;;;;5.80;4.07;;;17.00;100.00;;;;;;4965440;28;20054;-72
2023/09/22 03:15:20;;;;;;;7.68;3.95;;;17.00;100.00;;;;;;4984396;28;20058;-72
2023/09/22 03:17:48;;;;;;;7.07;4.47;;;17.00;100.00;;;;;;4984498;28;20073;-72
2023/09/22 03:20:17;;;;;;;8.65;4.13;;;17.00;100.00;;;;;;4984655;28;20438;-72
2023/09/22 03:22:44;;;;;;;7.10;4.45;;;16.90;100.00;;;;;;4983097;28;20561;-72
2023/09/22 03:25:11;;;;;;;10.63;4.13;;;16.90;100.00;;;;;;4983009;28;20057;-72
2023/09/22 03:27:39;;;;;;;6.68;4.40;;;16.90;100.00;;;;;;4965457;28;20054;-72
2023/09/22 03:30:09;;;;;;;7.75;4.72;;;16.90;100.00;;;;;;4982229;28;20137;-73
2023/09/22 03:32:38;;;;;;;12.15;5.72;;;16.80;100.00;;;;;;4980064;28;20060;-73
2023/09/22 03:35:06;;;;;;;8.60;4.82;;;16.80;100.00;;;;;;4982137;28;20132;-72
2023/09/22 03:37:34;;;;;;;7.38;5.13;;;16.80;100.00;;;;;;4981149;28;20050;-73
2023/09/22 03:40:14;;;;;;;9.68;5.65;;;16.80;100.00;;;;;;4982650;28;20070;-73
2023/09/22 03:42:43;;;;;;;11.25;5.05;;;16.80;100.00;;;;;;4964318;28;20483;-73
2023/09/22 03:45:11;;;;;;;10.90;5.28;;;16.80;100.00;;;;;;4979524;28;20128;-73
2023/09/22 03:47:39;;;;;;;10.90;5.53;;;16.80;100.00;;;;;;4982163;28;20054;-73
2023/09/22 03:50:06;;;;;;;12.88;6.70;;;16.80;100.00;;;;;;4981845;28;20458;-73
2023/09/22 03:52:34;;;;;;;15.10;7.07;;;16.80;100.00;;;;;;4981766;28;20586;-74
2023/09/22 03:55:02;;;;;;;14.02;7.53;;;16.70;100.00;;;;;;4980907;28;20050;-74
2023/09/22 03:57:29;;;;;;;11.70;7.55;;;16.60;100.00;;;;;;4960071;28;20144;-74
2023/09/22 03:59:56;;;;;;;14.18;8.13;;;16.60;100.00;;;;;;4980510;28;20050;-73
2023/09/22 04:02:27;;;;;;;11.18;7.55;;;16.60;100.00;;;;;;4980275;28;20124;-73
2023/09/22 04:04:54;;;;;;;14.25;7.50;;;16.60;100.00;;;;;;4981387;28;20654;-73
2023/09/22 04:07:21;;;;;;;12.13;7.57;;;16.50;100.00;;;;;;4982754;28;20073;-73
2023/09/22 04:09:48;;;;;;;14.13;8.10;;;16.50;100.00;;;;;;4965283;28;20149;-73
2023/09/22 04:12:15;;;;;;;13.60;8.43;;;16.50;100.00;;;;;;4978405;28;20054;-73
2023/09/22 04:14:43;;;;;;;14.32;8.55;;;16.50;100.00;;;;;;4980814;28;20061;-73
2023/09/22 04:17:10;;;;;;;15.82;8.68;;;16.40;100.00;;;;;;4979985;28;20573;-73
2023/09/22 04:19:37;;;;;;;14.05;8.55;;;16.40;100.00;;;;;;4979404;28;20156;-73
2023/09/22 04:22:07;;;;;;;15.07;8.77;;;16.40;100.00;;;;;;4979166;28;20060;-73
2023/09/22 04:24:34;;;;;;;18.17;8.52;;;16.30;100.00;;;;;;4980343;28;20662;-74
2023/09/22 04:27:09;;;;;;;13.85;8.40;;;16.30;100.00;;;;;;4979201;28;20058;-73
2023/09/22 04:29:36;;;;;;;12.02;8.10;;;16.30;100.00;;;;;;4981794;28;20062;-74
2023/09/22 04:32:04;;;;;;;12.60;8.13;;;16.30;100.00;;;;;;4978527;28;20046;-73
2023/09/22 04:34:35;;;;;;;14.95;8.57;;;16.30;100.00;;;;;;4981760;28;20097;-72
2023/09/22 04:37:05;;;;;;;14.10;9.35;;;16.30;100.00;;;;;;4975429;28;20050;-73
2023/09/22 04:39:32;;;;;;;14.02;8.48;;;16.20;100.00;;;;;;4976431;28;20056;-73
2023/09/22 04:42:01;;;;;;;17.85;8.80;;;16.20;100.00;;;;;;4976037;28;20136;-73
2023/09/22 04:44:28;;;;;;;19.83;9.65;;;16.20;100.00;;;;;;4980143;28;20042;-71
2023/09/22 04:46:55;;;;;;;14.48;9.32;;;16.20;100.00;;;;;;4980817;28;20050;-72
2023/09/22 04:49:22;;;;;;;18.33;10.20;;;16.10;100.00;;;;;;4981178;28;20054;-76
2023/09/22 04:51:51;;;;;;;16.65;9.68;;;16.00;100.00;;;;;;4980089;28;20050;-75
2023/09/22 04:54:19;;;;;;;20.73;10.48;;;16.10;100.00;;;;;;4982038;28;20061;-75
2023/09/22 04:56:46;;;;;;;18.05;10.43;;;16.10;100.00;;;;;;4961394;28;20156;-74
2023/09/22 04:59:16;;;;;;;16.30;10.30;;;16.00;100.00;;;;;;4983010;28;20490;-75
2023/09/22 05:01:43;;;;;;;17.45;10.07;;;16.00;100.00;;;;;;4979571;28;20050;-73
2023/09/22 05:04:10;;;;;;;19.30;10.18;;;16.00;100.00;;;;;;4980960;28;20050;-74
2023/09/22 05:06:37;;;;;;;66.45;14.65;;;16.00;100.00;;;;;;4981822;28;20058;-77
2023/09/22 05:09:07;;;;;;;95.78;19.75;;;16.00;100.00;;;;;;4980478;28;20530;-74
2023/09/22 05:11:34;;;;;;;21.20;10.93;;;16.00;100.00;;;;;;4971461;28;20136;-73
2023/09/22 05:14:01;;;;;;;19.02;10.18;;;16.10;100.00;;;;;;4983645;28;20153;-73
2023/09/22 05:16:28;;;;;;;18.73;8.95;;;16.10;100.00;;;;;;4982109;28;20161;-76
2023/09/22 05:18:56;;;;;;;23.70;9.82;;;16.10;100.00;;;;;;4981990;28;20048;-74
2023/09/22 05:21:22;;;;;;;34.22;11.88;;;16.10;100.00;;;;;;4979712;28;20061;-74
2023/09/22 05:23:51;;;;;;;31.48;10.95;;;16.10;100.00;;;;;;4982188;28;20078;-74
2023/09/22 05:26:20;;;;;;;15.90;9.32;;;16.00;100.00;;;;;;4981101;28;20058;-76
2023/09/22 05:28:49;;;;;;;25.20;10.70;;;16.00;100.00;;;;;;4974075;28;20144;-74
2023/09/22 05:31:16;;;;;;;15.45;9.00;;;16.00;100.00;;;;;;4981745;28;20061;-75
2023/09/22 05:33:44;;;;;;;56.33;14.77;;;16.00;100.00;;;;;;4980440;28;20501;-76
2023/09/22 05:36:11;;;;;;;19.27;9.77;;;16.00;100.00;;;;;;4982065;28;20049;-74
2023/09/22 05:38:38;;;;;;;65.30;14.98;;;15.90;100.00;;;;;;4978989;28;20046;-73
2023/09/22 05:41:05;;;;;;;18.02;9.77;;;16.00;100.00;;;;;;4968494;28;20053;-74
2023/09/22 05:43:32;;;;;;;21.17;9.95;;;15.90;100.00;;;;;;4985351;28;20053;-74
2023/09/22 05:45:59;;;;;;;18.58;9.63;;;15.90;100.00;;;;;;4968056;28;20081;-74
2023/09/22 05:48:27;;;;;;;20.50;10.68;;;16.00;100.00;;;;;;4965637;28;20057;-73
2023/09/22 05:50:59;;;;;;;14.35;9.45;;;15.90;100.00;;;;;;4983773;28;20140;-73
2023/09/22 05:53:27;;;;;;;20.58;10.82;;;15.90;100.00;;;;;;4966800;28;20050;-74
2023/09/22 05:56:08;;;;;;;19.42;9.98;;;16.00;100.00;;;;;;4967985;28;20077;-73
2023/09/22 05:58:37;;;;;;;18.77;10.50;;;16.00;100.00;;;;;;4981957;28;20058;-73
2023/09/22 06:01:07;;;;;;;17.58;10.05;;;16.00;100.00;;;;;;4983223;28;20042;-73
2023/09/22 06:03:36;;;;;;;16.33;9.50;;;16.00;100.00;;;;;;4983224;28;20061;-73
2023/09/22 06:06:11;;;;;;;17.45;10.30;;;16.00;100.00;;;;;;4986773;28;20046;-73
2023/09/22 06:08:40;;;;;;;18.25;9.80;;;16.00;100.00;;;;;;4985023;28;20046;-73
2023/09/22 06:11:08;;;;;;;16.63;9.70;;;16.00;100.00;;;;;;4986019;28;20042;-73
2023/09/22 06:13:35;;;;;;;18.17;9.75;;;16.10;100.00;;;;;;4985815;28;20812;-73
2023/09/22 06:16:02;;;;;;;608.25;82.70;;;16.20;100.00;;;;;;4968874;28;20042;-73
2023/09/22 06:18:30;;;;;;;43.25;15.68;;;16.30;100.00;;;;;;4985067;28;20057;-73
2023/09/22 06:21:00;;;;;;;22.77;9.93;;;16.30;100.00;;;;;;4968725;28;20632;-73
2023/09/22 06:23:27;;;;;;;14.30;8.93;;;16.30;100.00;;;;;;4968659;28;20141;-73
2023/09/22 06:26:00;;;;;;;20.95;9.63;;;16.40;100.00;;;;;;4986070;28;20050;-73
2023/09/22 06:28:27;;;;;;;17.77;9.75;;;16.40;100.00;;;;;;4967447;28;20051;-73
2023/09/22 06:30:59;;;;;;;21.63;11.43;;;16.40;100.00;;;;;;4984167;28;20054;-73
2023/09/22 06:33:27;;;;;;;16.75;9.48;;;16.30;100.00;;;;;;4985184;28;20559;-73
2023/09/22 06:35:58;;;;;;;14.70;9.30;;;16.30;100.00;;;;;;4961620;28;20622;-73
2023/09/22 06:38:25;;;;;;;18.67;9.48;;;16.30;100.00;;;;;;4979328;28;20053;-73
2023/09/22 06:40:55;;;;;;;15.48;9.52;;;16.40;100.00;;;;;;4985911;28;20046;-73
2023/09/22 06:43:25;;;;;;;16.35;9.00;;;16.50;100.00;;;;;;4964882;28;20057;-74
2023/09/22 06:45:54;;;;;;;16.67;9.50;;;16.60;100.00;;;;;;4987092;28;20077;-73
2023/09/22 06:48:25;;;;;;;16.42;9.43;;;16.50;99.30;;;;;;4968078;28;20069;-73
2023/09/22 06:50:57;;;;;;;15.30;8.45;;;16.60;98.40;;;;;;4983449;28;20055;-73
2023/09/22 06:53:26;;;;;;;17.27;9.63;;;16.60;98.90;;;;;;4983670;28;20061;-73
2023/09/22 06:56:02;;;;;;;16.05;8.27;;;16.70;99.20;;;;;;4985109;28;20161;-73
2023/09/22 06:58:29;;;;;;;14.18;8.70;;;16.80;99.90;;;;;;4984135;28;20105;-74
2023/09/22 07:00:56;;;;;;;12.55;8.20;;;16.90;97.50;;;;;;4984881;28;20094;-74
2023/09/22 07:03:23;;;;;;;12.85;8.63;;;17.10;97.10;;;;;;4964137;28;20802;-74
2023/09/22 07:05:50;;;;;;;11.75;8.23;;;17.20;95.80;;;;;;4983171;28;20558;-74
2023/09/22 07:08:17;;;;;;;12.07;7.25;;;17.30;95.60;;;;;;4983353;28;20054;-73
2023/09/22 07:10:44;;;;;;;11.20;7.43;;;17.10;93.20;;;;;;4967211;28;20439;-73
2023/09/22 07:13:11;;;;;;;11.70;6.30;;;17.10;95.60;;;;;;4984184;28;20049;-73
2023/09/22 07:15:38;;;;;;;13.55;7.15;;;17.00;94.80;;;;;;4966685;28;20077;-73
2023/09/22 07:18:05;;;;;;;8.80;5.95;;;16.90;94.30;;;;;;4982776;28;20054;-73
2023/09/22 07:20:32;;;;;;;13.15;6.78;;;16.90;94.70;;;;;;4982267;28;20058;-73
2023/09/22 07:22:59;;;;;;;8.50;6.32;;;16.90;96.00;;;;;;4983821;28;20046;-73
2023/09/22 07:25:26;;;;;;;7.82;5.88;;;16.90;96.60;;;;;;4981699;28;20053;-72
2023/09/22 07:27:53;;;;;;;12.15;6.53;;;17.00;96.50;;;;;;4966590;28;20145;-73
2023/09/22 07:30:20;;;;;;;13.85;7.22;;;17.10;96.40;;;;;;4986403;28;20059;-74
2023/09/22 07:32:47;;;;;;;15.93;8.02;;;17.10;95.90;;;;;;4983489;28;20093;-73
2023/09/22 07:35:15;;;;;;;8.63;5.90;;;17.10;95.50;;;;;;4975763;28;20857;-73
2023/09/22 07:37:42;;;;;;;21.27;12.43;;;17.10;94.10;;;;;;4966901;28;20053;-72
2023/09/22 07:40:09;;;;;;;41.67;30.77;;;17.20;93.80;;;;;;4983919;28;20052;-73
2023/09/22 07:42:39;;;;;;;38.72;33.75;;;17.30;94.80;;;;;;4982573;28;20054;-72
2023/09/22 07:45:07;;;;;;;15.93;9.82;;;17.40;93.20;;;;;;4982542;28;20050;-72
2023/09/22 07:47:34;;;;;;;16.13;11.05;;;17.50;92.40;;;;;;4984567;28;20054;-72
2023/09/22 07:50:02;;;;;;;15.93;9.48;;;17.50;92.30;;;;;;4984721;28;20137;-73
2023/09/22 07:52:29;;;;;;;13.05;8.57;;;17.50;93.10;;;;;;4981302;28;20148;-72
2023/09/22 07:54:58;;;;;;;13.95;8.50;;;17.50;91.90;;;;;;4982992;28;20046;-72
2023/09/22 07:57:30;;;;;;;12.88;8.60;;;17.40;91.90;;;;;;4965760;28;20240;-72
2023/09/22 07:59:58;;;;;;;15.75;8.60;;;17.40;91.60;;;;;;4964373;28;20050;-73
2023/09/22 08:02:24;;;;;;;17.55;8.25;;;17.40;91.50;;;;;;4982327;28;20061;-72
2023/09/22 08:04:52;;;;;;;11.55;7.55;;;17.30;91.10;;;;;;4985186;28;20050;-73
2023/09/22 08:07:18;;;;;;;12.63;8.55;;;17.20;91.90;;;;;;4982658;28;20197;-72
2023/09/22 08:09:45;;;;;;;14.07;8.32;;;17.20;92.20;;;;;;4966459;28;20054;-72
2023/09/22 08:12:12;;;;;;;13.30;7.72;;;17.10;92.00;;;;;;4983967;28;20529;-72
2023/09/22 08:14:39;;;;;;;16.92;8.38;;;17.20;92.70;;;;;;4981222;28;20081;-72
2023/09/22 08:17:23;;;;;;;23.38;12.00;;;17.30;92.30;;;;;;4980057;28;20632;-72
2023/09/22 08:19:50;;;;;;;18.88;9.13;;;17.50;92.00;;;;;;4979141;28;20133;-72
2023/09/22 08:22:17;;;;;;;10.65;7.45;;;17.60;92.10;;;;;;4977372;28;20050;-72
2023/09/22 08:24:44;;;;;;;9.98;6.97;;;17.70;91.70;;;;;;4981540;28;20455;-73
2023/09/22 08:27:11;;;;;;;36.25;19.85;;;17.70;89.70;;;;;;4964029;28;20047;-72
2023/09/22 08:29:39;;;;;;;38.25;25.45;;;17.80;91.00;;;;;;4976398;28;20094;-72
2023/09/22 08:32:07;;;;;;;33.47;17.08;;;18.00;88.00;;;;;;4977009;28;20050;-73
2023/09/22 08:34:38;;;;;;;74.18;41.53;;;18.10;89.60;;;;;;4982409;28;20427;-73
2023/09/22 08:37:05;;;;;;;12.15;9.07;;;18.30;88.10;;;;;;4983100;28;20419;-73
2023/09/22 08:39:32;;;;;;;8.48;5.55;;;18.30;87.60;;;;;;4978280;28;20078;-72
2023/09/22 08:41:59;;;;;;;7.47;5.75;;;18.50;88.20;;;;;;4979934;28;20057;-73
2023/09/22 08:44:27;;;;;;;9.80;5.85;;;18.50;87.70;;;;;;4982017;28;20836;-72
2023/09/22 08:46:54;;;;;;;12.45;5.90;;;18.50;86.20;;;;;;4981788;28;20046;-73
2023/09/22 08:49:21;;;;;;;23.10;6.18;;;18.30;86.00;;;;;;4978700;28;20054;-73
2023/09/22 08:51:51;;;;;;;6.93;4.40;;;18.20;86.30;;;;;;4975561;28;20046;-73
2023/09/22 08:54:19;;;;;;;4.93;4.20;;;18.20;83.70;;;;;;4980318;28;20062;-72
2023/09/22 08:56:46;;;;;;;6.28;4.43;;;18.20;85.70;;;;;;4981458;28;20057;-72
2023/09/22 08:59:13;;;;;;;8.00;4.53;;;18.20;85.90;;;;;;4982529;28;20407;-72
2023/09/22 09:01:40;;;;;;;9.90;4.93;;;18.10;86.30;;;;;;4962930;28;20451;-73
2023/09/22 09:04:33;;;;;;;8.13;4.85;;;18.10;84.90;;;;;;4980661;28;20102;-72
2023/09/22 09:07:02;;;;;;;5.30;4.03;;;18.00;85.50;;;;;;4976148;28;20046;-73
2023/09/22 09:09:44;;;;;;;8.25;4.55;;;18.00;86.80;;;;;;4981735;28;20133;-72
2023/09/22 09:12:13;;;;;;;5.45;3.83;;;18.00;86.40;;;;;;4984538;28;20061;-72
2023/09/22 09:14:42;;;;;;;9.68;4.90;;;18.10;86.30;;;;;;4984531;28;20055;-72
2023/09/22 09:17:22;;;;;;;7.45;3.92;;;18.20;87.10;;;;;;4987873;28;20082;-73
2023/09/22 09:19:54;;;;;;;7.40;4.07;;;18.30;85.80;;;;;;4984895;28;20100;-73
2023/09/22 09:22:30;;;;;;;9.07;3.45;;;18.30;85.50;;;;;;4985881;28;20066;-73
2023/09/22 09:25:01;;;;;;;8.85;4.28;;;18.40;85.60;;;;;;4983641;28;20046;-73
2023/09/22 09:27:28;;;;;;;4.38;3.08;;;18.20;84.50;;;;;;4984722;28;20763;-72
2023/09/22 09:29:57;;;;;;;7.78;3.28;;;18.20;85.80;;;;;;4982924;28;20828;-73
2023/09/22 09:32:29;;;;;;;4.78;3.25;;;18.30;85.60;;;;;;4987550;28;20050;-72
2023/09/22 09:34:57;;;;;;;4.80;3.70;;;18.20;85.70;;;;;;4987246;28;20046;-73
2023/09/22 09:37:24;;;;;;;4.53;3.50;;;18.30;86.00;;;;;;4980705;28;20155;-72
2023/09/22 09:39:53;;;;;;;4.18;3.40;;;18.30;85.00;;;;;;4985624;28;20050;-73
2023/09/22 09:42:26;;;;;;;3.17;2.88;;;18.40;83.80;;;;;;4985932;28;20046;-72
2023/09/22 09:44:56;;;;;;;9.10;3.10;;;18.50;84.30;;;;;;4976814;28;20487;-73
2023/09/22 09:47:26;;;;;;;4.82;3.10;;;18.60;83.00;;;;;;4979889;28;20072;-73
2023/09/22 09:49:57;;;;;;;7.72;3.08;;;18.50;83.10;;;;;;4968193;28;20523;-73
2023/09/22 09:52:42;;;;;;;5.10;2.85;;;18.60;83.30;;;;;;4964029;28;20931;-77
2023/09/22 09:55:13;;;;;;;3.33;2.72;;;18.70;82.70;;;;;;4978477;28;20054;-75
2023/09/22 09:57:42;;;;;;;3.58;2.92;;;18.80;82.90;;;;;;4982887;28;20153;-74
2023/09/22 10:00:19;;;;;;;7.82;3.17;;;18.60;81.40;;;;;;4983916;28;20050;-74
2023/09/22 10:02:51;;;;;;;4.13;2.92;;;18.60;81.70;;;;;;4982569;28;20047;-73
2023/09/22 10:05:21;;;;;;;8.95;2.72;;;18.50;80.40;;;;;;4980192;28;20048;-74
2023/09/22 10:07:50;;;;;;;7.13;3.08;;;18.50;82.40;;;;;;4960069;28;20054;-74
2023/09/22 10:10:21;;;;;;;6.82;2.80;;;18.50;82.20;;;;;;4985691;28;20128;-74
2023/09/22 10:12:48;;;;;;;3.67;2.58;;;18.40;81.80;;;;;;4977383;28;20057;-74
2023/09/22 10:15:16;;;;;;;5.00;2.83;;;18.40;81.30;;;;;;4984221;28;20136;-74
2023/09/22 10:17:54;;;;;;;8.85;2.70;;;18.40;81.10;;;;;;4986061;28;20086;-74
2023/09/22 10:20:45;;;;;;;3.50;2.75;;;18.50;82.90;;;;;;4967654;28;20566;-74
2023/09/22 10:23:27;;;;;;;3.33;2.45;;;18.60;81.90;;;;;;4980874;28;20112;-74
2023/09/22 10:26:14;;;;;;;4.35;2.50;;;18.50;81.60;;;;;;4959558;28;20042;-74
2023/09/22 10:28:42;;;;;;;4.68;2.47;;;18.70;82.00;;;;;;4981390;28;20097;-75
2023/09/22 10:31:09;;;;;;;3.28;2.20;;;18.60;80.30;;;;;;4984754;28;20065;-75
2023/09/22 10:33:37;;;;;;;6.13;2.60;;;18.60;81.20;;;;;;4982858;28;20058;-75
2023/09/22 10:36:08;;;;;;;4.38;2.47;;;18.70;80.30;;;;;;4985377;28;20392;-75
2023/09/22 10:38:53;;;;;;;12.32;5.07;;;18.70;80.20;;;;;;4983771;28;20239;-75
2023/09/22 10:41:20;;;;;;;5.63;2.40;;;18.80;81.00;;;;;;4966566;28;20046;-75
2023/09/22 10:43:58;;;;;;;7.53;2.50;;;18.70;79.40;;;;;;4985483;28;20456;-75
2023/09/22 10:46:26;;;;;;;5.60;2.25;;;18.80;79.60;;;;;;4985316;28;20054;-75
2023/09/22 10:48:53;;;;;;;6.82;2.35;;;18.70;78.70;;;;;;4985907;28;20145;-75
2023/09/22 10:51:22;;;;;;;4.25;2.30;;;18.60;79.80;;;;;;4968054;28;20077;-75
2023/09/22 10:53:58;;;;;;;5.43;1.98;;;18.70;80.00;;;;;;4978869;28;20054;-75
2023/09/22 10:56:25;;;;;;;7.68;2.60;;;18.80;79.40;;;;;;4985046;28;20054;-75
2023/09/22 10:58:53;;;;;;;5.60;2.50;;;18.80;79.40;;;;;;4986017;28;20050;-75
2023/09/22 11:01:22;;;;;;;2.45;1.98;;;18.80;79.40;;;;;;4984946;28;20042;-75
2023/09/22 11:03:53;;;;;;;5.32;2.47;;;18.80;79.00;;;;;;4983227;28;20054;-75
2023/09/22 11:06:21;;;;;;;3.72;2.25;;;18.80;78.80;;;;;;4983946;28;20565;-75
2023/09/22 11:08:51;;;;;;;6.35;2.13;;;18.80;79.00;;;;;;4983008;28;20100;-75
2023/09/22 11:11:19;;;;;;;6.88;2.72;;;18.70;79.00;;;;;;4982771;28;20414;-75
2023/09/22 11:13:55;;;;;;;7.15;2.40;;;18.70;78.40;;;;;;4984290;28;20061;-75
2023/09/22 11:16:24;;;;;;;4.93;2.00;;;18.70;79.70;;;;;;4983667;28;20058;-74
2023/09/22 11:19:04;;;;;;;7.47;2.70;;;18.70;77.30;;;;;;4984314;28;20050;-75
2023/09/22 11:21:39;;;;;;;8.25;2.70;;;18.60;77.60;;;;;;4968234;28;20401;-75
2023/09/22 11:24:07;;;;;;;3.08;2.25;;;18.40;78.50;;;;;;4985164;28;20050;-75
2023/09/22 11:26:41;;;;;;;5.63;2.90;;;18.40;79.80;;;;;;4967344;28;20152;-75
2023/09/22 11:29:08;;;;;;;6.97;2.60;;;18.50;79.10;;;;;;4983798;28;20330;-74
2023/09/22 11:31:49;;;;;;;4.82;2.95;;;18.60;78.60;;;;;;4984030;28;20176;-75
2023/09/22 11:34:19;;;;;;;3.08;2.78;;;18.50;76.50;;;;;;4983178;28;20130;-74
2023/09/22 11:36:54;;;;;;;6.50;3.58;;;18.60;78.70;;;;;;4967430;28;20050;-75
2023/09/22 11:39:26;;;;;;;;;;;18.70;78.50;;;;;;4977803;28;20066;-75
2023/09/22 11:41:54;;;;;;;3.78;3.20;;;18.90;78.90;;;;;;4984015;28;20009;-74
2023/09/22 11:44:21;;;;;;;5.53;3.13;;;19.10;78.20;;;;;;4985045;28;20144;-75
2023/09/22 11:46:48;;;;;;;6.28;3.13;;;19.50;77.50;;;;;;4967595;28;20140;-74
2023/09/22 11:49:16;;;;;;;5.30;2.65;;;20.00;76.90;;;;;;4980692;28;20403;-75
2023/09/22 11:52:08;;;;;;;4.70;3.47;;;20.10;74.40;;;;;;4962220;28;20053;-74
2023/09/22 11:54:35;;;;;;;5.95;3.00;;;19.90;74.10;;;;;;4983603;28;20050;-78
2023/09/22 11:57:03;;;;;;;3.17;2.70;;;19.90;74.90;;;;;;4983076;28;20749;-73
2023/09/22 11:59:33;;;;;;;4.90;2.78;;;20.20;74.60;;;;;;4982763;28;20141;-72
2023/09/22 12:02:01;;;;;;;3.95;2.45;;;20.90;72.40;;;;;;4981041;28;20140;-73
2023/09/22 12:04:34;;;;;;;3.40;2.83;;;23.10;69.80;;;;;;4977858;28;20818;-72
2023/09/22 12:07:01;;;;;;;4.18;2.20;;;25.20;64.80;;;;;;4979814;28;20487;-71
2023/09/22 12:09:28;;;;;;;5.00;2.22;;;25.20;59.50;;;;;;4989259;28;20092;-73
2023/09/22 12:11:55;;;;;;;6.95;2.03;;;24.30;60.20;;;;;;4987348;28;20054;-73
2023/09/22 12:14:23;;;;;;;3.10;2.10;;;23.60;61.40;;;;;;4964096;28;20054;-73
2023/09/22 12:16:51;;;;;;;3.97;1.85;;;22.80;63.10;;;;;;4980272;28;20750;-72
2023/09/22 12:19:23;;;;;;;2.10;1.73;;;22.80;64.20;;;;;;4979427;28;20505;-72
2023/09/22 12:21:50;;;;;;;5.97;2.50;;;22.90;67.00;;;;;;4981960;28;20047;-72
2023/09/22 12:24:18;;;;;;;3.42;2.15;;;23.40;63.70;;;;;;4965837;28;20047;-73
2023/09/22 12:26:46;;;;;;;9.93;2.15;;;23.90;62.50;;;;;;4978832;28;20120;-72
2023/09/22 12:29:15;;;;;;;6.55;2.20;;;24.20;61.60;;;;;;4982057;28;20046;-72
2023/09/22 12:31:44;;;;;;;2.88;1.95;;;24.10;63.10;;;;;;4982390;28;20062;-73
2023/09/22 12:34:11;;;;;;;17.42;2.20;;;24.70;58.00;;;;;;4963446;28;20054;-72
2023/09/22 12:36:39;;;;;;;3.20;2.03;;;25.00;62.00;;;;;;4986666;28;20136;-73
2023/09/22 12:39:06;;;;;;;2.75;1.80;;;25.70;55.70;;;;;;4980388;28;20062;-73
2023/09/22 12:41:32;;;;;;;4.05;1.95;;;25.80;56.70;;;;;;4965304;28;20038;-73
2023/09/22 12:44:00;;;;;;;2.65;1.75;;;25.90;56.70;;;;;;4981302;28;20053;-73
2023/09/22 12:46:27;;;;;;;2.10;1.60;;;25.60;57.30;;;;;;4988848;28;20070;-73
2023/09/22 12:48:54;;;;;;;5.72;1.80;;;25.60;58.40;;;;;;4960667;28;20050;-73